| time (UTC) | temp F | wind direction | speed MPH | gust MPH | rain 1hr in | rain 24hr in | rain mn in | humidity % | barometer mb |
| 20260904081307 | 61 | 136 | 4.0 | 8.0 | 0.00 | 0.39 | 0.39 | 99 | 1016.5 |
| 20260904080802 | 61 | 180 | 5.0 | 10.0 | 0.00 | 0.39 | 0.39 | 99 | 1016.4 |
| 20260904080258 | 61 | 171 | 3.0 | 13.0 | 0.00 | 0.39 | 0.39 | 99 | 1016.4 |
| 20260904075754 | 61 | 138 | 6.0 | 9.0 | 0.00 | 0.39 | 0.39 | 99 | 1016.8 |
| 20260904075248 | 61 | 117 | 6.0 | 13.0 | 0.07 | 0.39 | 0.39 | 99 | 1016.8 |
| 20260904074748 | 61 | 152 | 4.0 | 11.0 | 0.07 | 0.39 | 0.39 | 99 | 1016.9 |
| 20260904074243 | 61 | 79 | 4.0 | 9.0 | 0.00 | 0.38 | 0.38 | 99 | 1017.2 |
| 20260904073738 | 61 | 122 | 4.0 | 11.0 | 0.00 | 0.38 | 0.38 | 99 | 1017.1 |
| 20260904073234 | 61 | 110 | 5.0 | 7.0 | 0.00 | 0.38 | 0.38 | 99 | 1017.5 |
| 20260904072730 | 61 | 103 | 5.0 | 10.0 | 0.00 | 0.38 | 0.38 | 98 | 1017.6 |
| 20260904072224 | 61 | 94 | 3.0 | 8.0 | 0.00 | 0.38 | 0.38 | 99 | 1018.0 |
| 20260904071720 | 61 | 96 | 3.0 | 6.0 | 0.05 | 0.38 | 0.38 | 99 | 1017.9 |
| 20260904071215 | 61 | 154 | 4.0 | 4.0 | 0.12 | 0.38 | 0.38 | 99 | 1018.5 |
| 20260904070715 | 61 | 181 | 4.0 | 4.0 | 0.17 | 0.38 | 0.38 | 99 | 1018.4 |
| 20260904070213 | 61 | 117 | 4.0 | 4.0 | 0.17 | 0.36 | 0.36 | 99 | 1018.6 |
| 20260904065703 | 61 | 90 | 1.0 | 2.0 | 0.31 | 0.35 | 0.35 | 99 | 1018.5 |
| 20260904065200 | 61 | 182 | 2.0 | 2.0 | 0.24 | 0.32 | 0.32 | 99 | 1018.9 |
| 20260904064659 | 61 | 151 | 2.0 | 2.0 | 0.24 | 0.30 | 0.30 | 99 | 1019.1 |
| 20260904064154 | 61 | 232 | 0.0 | 0.0 | 0.17 | 0.27 | 0.27 | 99 | 1019.4 |
| 20260904063650 | 61 | 210 | 0.0 | 1.0 | 0.12 | 0.26 | 0.26 | 98 | 1019.4 |
| 20260904063146 | 61 | 76 | 3.0 | 3.0 | 0.19 | 0.24 | 0.24 | 98 | 1019.1 |
| 20260904062642 | 61 | 163 | 5.0 | 8.0 | 0.24 | 0.23 | 0.23 | 98 | 1018.9 |
| 20260904062137 | 61 | 107 | 3.0 | 3.0 | 0.24 | 0.21 | 0.21 | 98 | 1018.6 |
| 20260904061633 | 61 | 40 | 4.0 | 7.0 | 0.19 | 0.19 | 0.19 | 97 | 1018.5 |
| 20260904061130 | 61 | 99 | 2.0 | 9.0 | 0.12 | 0.17 | 0.17 | 98 | 1018.6 |
| 20260904060626 | 61 | 125 | 3.0 | 4.0 | 0.24 | 0.16 | 0.16 | 99 | 1018.5 |
| 20260904060122 | 62 | 180 | 4.0 | 9.0 | 0.31 | 0.15 | 0.15 | 99 | 1018.4 |
| 20260904055621 | 62 | 151 | 2.0 | 3.0 | 0.24 | 0.12 | 0.12 | 99 | 1018.7 |
| 20260904055116 | 62 | 163 | 3.0 | 4.0 | 0.24 | 0.10 | 0.10 | 99 | 1018.9 |
| 20260904054612 | 62 | 154 | 6.0 | 9.0 | 0.31 | 0.08 | 0.08 | 99 | 1018.7 |
| 20260904054108 | 62 | 162 | 4.0 | 6.0 | 0.31 | 0.06 | 0.06 | 99 | 1018.4 |
| 20260904053608 | 62 | 108 | 2.0 | 3.0 | 0.12 | 0.02 | 0.02 | 99 | 1017.9 |
| 20260904053103 | 62 | 149 | 4.0 | 6.0 | 0.00 | 0.00 | 0.00 | 98 | 1018.4 |
| 20260904052559 | 62 | 117 | 3.0 | 4.0 | 0.00 | 0.00 | 0.00 | 97 | 1018.6 |
| 20260904052055 | 62 | 173 | 5.0 | 7.0 | 0.00 | 0.00 | 0.00 | 96 | 1018.6 |
| 20260904051551 | 62 | 159 | 3.0 | 9.0 | 0.00 | 0.00 | 0.00 | 96 | 1018.0 |
| 20260904051051 | 62 | 96 | 5.0 | 9.0 | 0.00 | 0.00 | 0.00 | 96 | 1017.9 |
| 20260904050547 | 62 | 238 | 4.0 | 7.0 | 0.00 | 0.00 | 0.00 | 96 | 1018.0 |
| 20260904050043 | 62 | 77 | 4.0 | 7.0 | 0.00 | 0.00 | 0.00 | 96 | 1018.1 |
| 20260904045538 | 62 | 141 | 3.0 | 13.0 | 0.00 | 0.00 | 0.00 | 96 | 1018.6 |
| 20260904045037 | 62 | 118 | 2.0 | 7.0 | 0.00 | 0.00 | 0.00 | 96 | 1018.4 |
| 20260904044534 | 62 | 45 | 6.0 | 9.0 | 0.00 | 0.00 | 0.00 | 96 | 1018.3 |
| 20260904044030 | 62 | 211 | 6.0 | 8.0 | 0.00 | 0.00 | 0.00 | 96 | 1017.9 |
| 20260904043526 | 62 | 146 | 5.0 | 9.0 | 0.00 | 0.00 | 0.00 | 96 | 1018.1 |
| 20260904043022 | 62 | 211 | 6.0 | 9.0 | 0.00 | 0.00 | 0.00 | 95 | 1018.1 |
| 20260904042518 | 62 | 96 | 4.0 | 8.0 | 0.00 | 0.00 | 0.00 | 95 | 1018.0 |
| 20260904042013 | 62 | 116 | 4.0 | 7.0 | 0.00 | 0.00 | 0.00 | 95 | 1018.1 |
| 20260904041508 | 62 | 117 | 4.0 | 8.0 | 0.00 | 0.00 | 0.00 | 94 | 1017.9 |
| 20260904041004 | 62 | 153 | 5.0 | 9.0 | 0.00 | 0.00 | 0.00 | 94 | 1017.8 |
| 20260904040458 | 63 | 301 | 5.0 | 9.0 | 0.00 | 0.00 | 0.00 | 94 | 1017.9 |
| 20260904035955 | 62 | 88 | 7.0 | 9.0 | 0.00 | 0.00 | 0.00 | 94 | 1017.9 |
| 20260904035451 | 62 | 61 | 2.0 | 7.0 | 0.00 | 0.00 | 0.00 | 95 | 1017.9 |
| 20260904034950 | 62 | 110 | 4.0 | 7.0 | 0.00 | 0.00 | 0.00 | 95 | 1018.0 |
| 20260904034445 | 62 | 140 | 4.0 | 9.0 | 0.00 | 0.00 | 0.00 | 94 | 1018.4 |
| 20260904033941 | 62 | 85 | 7.0 | 10.0 | 0.00 | 0.00 | 0.00 | 94 | 1018.5 |
| 20260904033436 | 62 | 117 | 4.0 | 8.0 | 0.00 | 0.00 | 0.00 | 94 | 1018.1 |
| 20260904032933 | 62 | 115 | 4.0 | 7.0 | 0.00 | 0.00 | 0.00 | 94 | 1018.0 |
| 20260904032428 | 62 | 85 | 4.0 | 9.0 | 0.00 | 0.00 | 0.00 | 94 | 1018.0 |
| 20260904031927 | 62 | 164 | 4.0 | 9.0 | 0.00 | 0.00 | 0.00 | 95 | 1017.9 |
| 20260904031423 | 63 | 114 | 3.0 | 6.0 | 0.00 | 0.00 | 0.00 | 95 | 1018.1 |
| 20260904030919 | 63 | 104 | 2.0 | 10.0 | 0.00 | 0.00 | 0.00 | 94 | 1018.5 |
| 20260904030419 | 63 | 169 | 2.0 | 6.0 | 0.00 | 0.00 | 0.00 | 95 | 1018.3 |
| 20260904025915 | 63 | 192 | 6.0 | 9.0 | 0.00 | 0.00 | 0.00 | 95 | 1018.1 |
| 20260904025411 | 63 | 92 | 4.0 | 8.0 | 0.00 | 0.00 | 0.00 | 95 | 1018.5 |
| 20260904024910 | 63 | 119 | 4.0 | 10.0 | 0.00 | 0.00 | 0.00 | 95 | 1018.6 |
| 20260904024405 | 63 | 152 | 4.0 | 6.0 | 0.00 | 0.00 | 0.00 | 95 | 1018.6 |
| 20260904023902 | 63 | 156 | 5.0 | 7.0 | 0.00 | 0.00 | 0.00 | 95 | 1018.6 |
| 20260904023358 | 63 | 88 | 6.0 | 10.0 | 0.00 | 0.00 | 0.00 | 95 | 1018.5 |
| 20260904022856 | 63 | 128 | 2.0 | 4.0 | 0.00 | 0.00 | 0.00 | 94 | 1018.8 |
| 20260904022354 | 63 | 115 | 5.0 | 8.0 | 0.00 | 0.00 | 0.00 | 94 | 1018.7 |
| 20260904021850 | 63 | 88 | 4.0 | 9.0 | 0.00 | 0.00 | 0.00 | 94 | 1018.6 |
| 20260904021345 | 63 | 172 | 3.0 | 7.0 | 0.00 | 0.00 | 0.00 | 95 | 1018.4 |
| 20260904020840 | 62 | 119 | 4.0 | 10.0 | 0.00 | 0.00 | 0.00 | 95 | 1018.7 |
| 20260904020335 | 62 | 196 | 2.0 | 8.0 | 0.00 | 0.00 | 0.00 | 95 | 1018.6 |
| 20260904015833 | 62 | 139 | 3.0 | 7.0 | 0.00 | 0.00 | 0.00 | 94 | 1018.4 |
| 20260904015329 | 62 | 164 | 2.0 | 6.0 | 0.00 | 0.00 | 0.00 | 94 | 1018.7 |
| 20260904014827 | 62 | 207 | 2.0 | 7.0 | 0.00 | 0.00 | 0.00 | 94 | 1018.8 |
| 20260904014323 | 62 | 145 | 2.0 | 3.0 | 0.00 | 0.00 | 0.00 | 94 | 1018.8 |
| 20260904013818 | 62 | 172 | 3.0 | 7.0 | 0.00 | 0.00 | 0.00 | 94 | 1018.9 |
| 20260904013314 | 62 | 101 | 1.0 | 6.0 | 0.00 | 0.00 | 0.00 | 93 | 1018.6 |
| 20260904012810 | 62 | 133 | 3.0 | 6.0 | 0.00 | 0.00 | 0.00 | 93 | 1018.4 |
| 20260904012306 | 62 | 202 | 3.0 | 4.0 | 0.00 | 0.00 | 0.00 | 91 | 1018.5 |
| 20260904011804 | 63 | 191 | 3.0 | 7.0 | 0.00 | 0.00 | 0.00 | 90 | 1018.4 |
| 20260904011259 | 63 | 149 | 3.0 | 6.0 | 0.00 | 0.00 | 0.00 | 90 | 1018.3 |
| 20260904010753 | 63 | 139 | 3.0 | 7.0 | 0.00 | 0.00 | 0.00 | 89 | 1018.6 |
| 20260904010251 | 63 | 102 | 3.0 | 3.0 | 0.00 | 0.00 | 0.00 | 88 | 1018.4 |
| 20260904005750 | 63 | 159 | 2.0 | 4.0 | 0.00 | 0.00 | 0.00 | 88 | 1018.3 |
| 20260904005247 | 63 | 162 | 1.0 | 4.0 | 0.00 | 0.00 | 0.00 | 87 | 1017.9 |
| 20260904004741 | 63 | 164 | 5.0 | 6.0 | 0.00 | 0.00 | 0.00 | 87 | 1017.8 |
| 20260904004237 | 64 | 153 | 2.0 | 3.0 | 0.00 | 0.00 | 0.00 | 86 | 1018.0 |
| 20260904003731 | 64 | 174 | 2.0 | 4.0 | 0.00 | 0.00 | 0.00 | 85 | 1017.8 |
| 20260904003228 | 64 | 81 | 2.0 | 6.0 | 0.00 | 0.00 | 0.00 | 85 | 1018.0 |
| 20260904002723 | 64 | 168 | 1.0 | 6.0 | 0.00 | 0.00 | 0.00 | 85 | 1018.0 |
| 20260904002220 | 64 | 130 | 4.0 | 4.0 | 0.00 | 0.00 | 0.00 | 84 | 1018.3 |
| 20260904001714 | 65 | 127 | 3.0 | 7.0 | 0.00 | 0.00 | 0.00 | 84 | 1018.1 |
| 20260904001213 | 65 | 92 | 1.0 | 4.0 | 0.00 | 0.00 | 0.00 | 83 | 1018.1 |
| 20260904000709 | 65 | 156 | 2.0 | 3.0 | 0.00 | 0.00 | 0.00 | 83 | 1018.0 |
| 20260904000204 | 65 | 57 | 3.0 | 7.0 | 0.00 | 0.00 | 0.00 | 82 | 1018.1 |
| 20260903235657 | 66 | 82 | 2.0 | 4.0 | 0.00 | 0.00 | 0.00 | 82 | 1018.3 |
| 20260903235154 | 66 | 112 | 2.0 | 3.0 | 0.00 | 0.00 | 0.00 | 81 | 1018.0 |
| 20260903234648 | 66 | 129 | 2.0 | 4.0 | 0.00 | 0.00 | 0.00 | 80 | 1018.3 |
| 20260903234144 | 66 | 134 | 2.0 | 6.0 | 0.00 | 0.00 | 0.00 | 79 | 1018.3 |
| 20260903233640 | 66 | 79 | 2.0 | 7.0 | 0.00 | 0.00 | 0.00 | 79 | 1018.3 |
| 20260903233136 | 67 | 167 | 4.0 | 6.0 | 0.00 | 0.00 | 0.00 | 79 | 1018.4 |
| 20260903232630 | 67 | 107 | 2.0 | 9.0 | 0.00 | 0.00 | 0.00 | 78 | 1018.5 |
| 20260903232126 | 67 | 121 | 4.0 | 6.0 | 0.00 | 0.00 | 0.00 | 77 | 1018.3 |
| 20260903231620 | 67 | 93 | 3.0 | 8.0 | 0.00 | 0.00 | 0.00 | 77 | 1018.3 |
| 20260903231115 | 68 | 89 | 4.0 | 10.0 | 0.00 | 0.00 | 0.00 | 77 | 1018.4 |
| 20260903230611 | 68 | 165 | 4.0 | 8.0 | 0.00 | 0.00 | 0.00 | 76 | 1018.0 |
| 20260903230109 | 69 | 103 | 4.0 | 9.0 | 0.00 | 0.00 | 0.00 | 75 | 1018.0 |
| 20260903225607 | 69 | 138 | 4.0 | 7.0 | 0.00 | 0.00 | 0.00 | 74 | 1017.9 |
| 20260903225103 | 69 | 111 | 4.0 | 7.0 | 0.00 | 0.00 | 0.00 | 74 | 1017.8 |
| 20260903224559 | 69 | 99 | 3.0 | 6.0 | 0.00 | 0.00 | 0.00 | 74 | 1017.9 |
| 20260903224055 | 68 | 78 | 4.0 | 7.0 | 0.00 | 0.00 | 0.00 | 74 | 1018.0 |
| 20260903223554 | 69 | 90 | 4.0 | 13.0 | 0.00 | 0.00 | 0.00 | 74 | 1018.3 |
| 20260903223053 | 70 | 82 | 3.0 | 6.0 | 0.00 | 0.00 | 0.00 | 72 | 1018.5 |
| 20260903222548 | 70 | 96 | 3.0 | 7.0 | 0.00 | 0.00 | 0.00 | 71 | 1018.3 |
| 20260903222047 | 70 | 150 | 2.0 | 7.0 | 0.00 | 0.00 | 0.00 | 72 | 1018.1 |
| 20260903221542 | 70 | 130 | 2.0 | 7.0 | 0.00 | 0.00 | 0.00 | 73 | 1018.0 |
| 20260903221040 | 71 | 171 | 4.0 | 9.0 | 0.00 | 0.00 | 0.00 | 72 | 1018.1 |
| 20260903220539 | 71 | 212 | 4.0 | 7.0 | 0.00 | 0.00 | 0.00 | 71 | 1018.1 |
| 20260903220033 | 71 | 157 | 7.0 | 9.0 | 0.00 | 0.00 | 0.00 | 70 | 1017.9 |
| 20260903215527 | 71 | 134 | 4.0 | 7.0 | 0.00 | 0.00 | 0.00 | 71 | 1017.9 |
| 20260903215027 | 70 | 144 | 2.0 | 11.0 | 0.00 | 0.00 | 0.00 | 72 | 1017.9 |
| 20260903214522 | 71 | 101 | 4.0 | 8.0 | 0.00 | 0.00 | 0.00 | 71 | 1018.0 |
| 20260903214021 | 71 | 193 | 4.0 | 14.0 | 0.00 | 0.00 | 0.00 | 70 | 1018.0 |
| 20260903213517 | 71 | 108 | 3.0 | 10.0 | 0.00 | 0.00 | 0.00 | 71 | 1018.1 |
| 20260903213013 | 71 | 134 | 4.0 | 10.0 | 0.00 | 0.00 | 0.00 | 71 | 1018.0 |
| 20260903212508 | 73 | 163 | 6.0 | 8.0 | 0.00 | 0.00 | 0.00 | 67 | 1017.8 |
| 20260903212003 | 73 | 90 | 5.0 | 9.0 | 0.00 | 0.00 | 0.00 | 67 | 1018.0 |
| 20260903211458 | 73 | 108 | 5.0 | 9.0 | 0.00 | 0.00 | 0.00 | 68 | 1017.8 |
| 20260903210954 | 73 | 165 | 3.0 | 7.0 | 0.00 | 0.00 | 0.00 | 68 | 1017.9 |
| 20260903210454 | 72 | 127 | 3.0 | 8.0 | 0.00 | 0.00 | 0.00 | 69 | 1017.8 |
| 20260903205949 | 73 | 115 | 4.0 | 6.0 | 0.00 | 0.00 | 0.00 | 68 | 1017.8 |
| 20260903205444 | 73 | 151 | 3.0 | 7.0 | 0.00 | 0.00 | 0.00 | 67 | 1017.5 |
| 20260903204939 | 73 | 122 | 6.0 | 8.0 | 0.00 | 0.00 | 0.00 | 66 | 1017.7 |
| 20260903204435 | 73 | 87 | 1.0 | 6.0 | 0.00 | 0.00 | 0.00 | 67 | 1017.6 |
| 20260903203930 | 73 | 138 | 3.0 | 8.0 | 0.00 | 0.00 | 0.00 | 65 | 1017.6 |
| 20260903203425 | 73 | 191 | 5.0 | 7.0 | 0.00 | 0.00 | 0.00 | 66 | 1017.6 |
| 20260903202919 | 75 | 102 | 5.0 | 7.0 | 0.00 | 0.00 | 0.00 | 60 | 1017.6 |
| 20260903202416 | 75 | 105 | 2.0 | 9.0 | 0.00 | 0.00 | 0.00 | 63 | 1017.6 |
| 20260903201915 | 76 | 41 | 4.0 | 6.0 | 0.00 | 0.00 | 0.00 | 62 | 1017.5 |
| 20260903201411 | 76 | 162 | 5.0 | 8.0 | 0.00 | 0.00 | 0.00 | 59 | 1017.6 |
| 20260903200910 | 76 | 108 | 7.0 | 10.0 | 0.00 | 0.00 | 0.00 | 58 | 1017.7 |
| 20260903200405 | 77 | 161 | 3.0 | 8.0 | 0.00 | 0.00 | 0.00 | 60 | 1017.6 |
| 20260903195900 | 78 | 132 | 3.0 | 4.0 | 0.00 | 0.00 | 0.00 | 61 | 1017.6 |
| 20260903195356 | 77 | 85 | 3.0 | 3.0 | 0.00 | 0.00 | 0.00 | 61 | 1017.6 |
| 20260903194850 | 76 | 46 | 4.0 | 6.0 | 0.00 | 0.00 | 0.00 | 61 | 1017.8 |
| 20260903194346 | 77 | 90 | 6.0 | 8.0 | 0.00 | 0.00 | 0.00 | 60 | 1017.6 |
| 20260903193841 | 77 | 104 | 4.0 | 10.0 | 0.00 | 0.00 | 0.00 | 63 | 1017.7 |
| 20260903193337 | 77 | 109 | 4.0 | 8.0 | 0.00 | 0.00 | 0.00 | 62 | 1017.6 |
| 20260903192832 | 77 | 149 | 2.0 | 6.0 | 0.00 | 0.00 | 0.00 | 61 | 1017.6 |
| 20260903192328 | 77 | 68 | 5.0 | 8.0 | 0.00 | 0.00 | 0.00 | 60 | 1017.7 |
| 20260903191825 | 77 | 305 | 3.0 | 6.0 | 0.00 | 0.00 | 0.00 | 60 | 1017.5 |
| 20260903191320 | 76 | 84 | 3.0 | 6.0 | 0.00 | 0.00 | 0.00 | 61 | 1017.7 |
| 20260903190819 | 77 | 82 | 3.0 | 9.0 | 0.00 | 0.00 | 0.00 | 60 | 1017.8 |
| 20260903190315 | 77 | 110 | 2.0 | 4.0 | 0.00 | 0.00 | 0.00 | 61 | 1017.9 |
| 20260903185814 | 77 | 86 | 2.0 | 8.0 | 0.00 | 0.00 | 0.00 | 62 | 1017.9 |
| 20260903185309 | 76 | 226 | 2.0 | 6.0 | 0.00 | 0.00 | 0.00 | 63 | 1017.9 |
| 20260903184805 | 76 | 128 | 2.0 | 6.0 | 0.00 | 0.00 | 0.00 | 64 | 1018.0 |
| 20260903184302 | 76 | 102 | 6.0 | 7.0 | 0.00 | 0.00 | 0.00 | 65 | 1018.0 |
| 20260903183756 | 76 | 201 | 1.0 | 4.0 | 0.00 | 0.00 | 0.00 | 66 | 1018.1 |
| 20260903183250 | 77 | 206 | 2.0 | 10.0 | 0.00 | 0.00 | 0.00 | 66 | 1018.3 |
| 20260903182749 | 75 | 108 | 4.0 | 7.0 | 0.00 | 0.00 | 0.00 | 66 | 1018.3 |
| 20260903182244 | 77 | 90 | 4.0 | 9.0 | 0.00 | 0.00 | 0.00 | 65 | 1018.3 |
| 20260903181743 | 78 | 132 | 4.0 | 7.0 | 0.00 | 0.00 | 0.00 | 63 | 1018.4 |
| 20260903181238 | 78 | 141 | 4.0 | 4.0 | 0.00 | 0.00 | 0.00 | 63 | 1018.1 |
| 20260903180734 | 80 | 81 | 2.0 | 2.0 | 0.00 | 0.00 | 0.00 | 59 | 1018.4 |
| 20260903180232 | 78 | 173 | 2.0 | 4.0 | 0.00 | 0.00 | 0.00 | 62 | 1018.5 |
| 20260903175727 | 78 | 286 | 2.0 | 3.0 | 0.00 | 0.00 | 0.00 | 61 | 1018.3 |
| 20260903175226 | 78 | 82 | 3.0 | 8.0 | 0.00 | 0.00 | 0.00 | 62 | 1018.4 |
| 20260903174725 | 78 | 97 | 2.0 | 7.0 | 0.00 | 0.00 | 0.00 | 60 | 1018.4 |
| 20260903174221 | 77 | 104 | 1.0 | 3.0 | 0.00 | 0.00 | 0.00 | 60 | 1018.4 |
| 20260903173716 | 78 | 128 | 2.0 | 8.0 | 0.00 | 0.00 | 0.00 | 62 | 1018.5 |
| 20260903173211 | 79 | 209 | 4.0 | 4.0 | 0.00 | 0.00 | 0.00 | 59 | 1018.6 |
| 20260903172706 | 78 | 122 | 2.0 | 4.0 | 0.00 | 0.00 | 0.00 | 61 | 1018.6 |
| 20260903172201 | 78 | 173 | 4.0 | 7.0 | 0.00 | 0.00 | 0.00 | 60 | 1018.8 |
| 20260903171656 | 78 | 103 | 3.0 | 4.0 | 0.00 | 0.00 | 0.00 | 60 | 1018.6 |
| 20260903171152 | 78 | 164 | 2.0 | 3.0 | 0.00 | 0.00 | 0.00 | 60 | 1018.6 |
| 20260903170651 | 78 | 88 | 4.0 | 6.0 | 0.00 | 0.00 | 0.00 | 59 | 1018.5 |
| 20260903170146 | 78 | 65 | 3.0 | 6.0 | 0.00 | 0.00 | 0.00 | 62 | 1018.6 |
| 20260903165644 | 77 | 136 | 1.0 | 6.0 | 0.00 | 0.00 | 0.00 | 63 | 1018.7 |
| 20260903165139 | 77 | 84 | 3.0 | 4.0 | 0.00 | 0.00 | 0.00 | 63 | 1018.6 |
| 20260903164634 | 76 | 123 | 2.0 | 6.0 | 0.00 | 0.00 | 0.00 | 64 | 1018.8 |
| 20260903164130 | 76 | 185 | 2.0 | 6.0 | 0.00 | 0.00 | 0.00 | 63 | 1018.9 |
| 20260903163629 | 77 | 226 | 2.0 | 6.0 | 0.00 | 0.00 | 0.00 | 65 | 1018.7 |
| 20260903163126 | 76 | 232 | 1.0 | 4.0 | 0.00 | 0.00 | 0.00 | 65 | 1018.7 |
| 20260903162622 | 78 | 164 | 4.0 | 7.0 | 0.00 | 0.00 | 0.00 | 62 | 1018.8 |
| 20260903162118 | 77 | 214 | 0.0 | 3.0 | 0.00 | 0.00 | 0.00 | 66 | 1018.7 |
| 20260903161619 | 76 | 131 | 2.0 | 4.0 | 0.00 | 0.00 | 0.00 | 65 | 1018.8 |
| 20260903161114 | 77 | 205 | 2.0 | 6.0 | 0.00 | 0.00 | 0.00 | 65 | 1018.5 |
| 20260903160609 | 75 | 229 | 1.0 | 4.0 | 0.00 | 0.00 | 0.00 | 65 | 1018.7 |
| 20260903160103 | 75 | 137 | 1.0 | 3.0 | 0.00 | 0.00 | 0.00 | 66 | 1018.7 |
| 20260903155602 | 75 | 117 | 2.0 | 3.0 | 0.00 | 0.00 | 0.00 | 68 | 1018.7 |
| 20260903155057 | 76 | 201 | 1.0 | 2.0 | 0.00 | 0.00 | 0.00 | 66 | 1018.8 |
| 20260903154554 | 74 | 210 | 0.0 | 4.0 | 0.00 | 0.00 | 0.00 | 68 | 1019.0 |
| 20260903154050 | 74 | 158 | 2.0 | 3.0 | 0.00 | 0.00 | 0.00 | 69 | 1018.7 |
| 20260903153544 | 73 | 177 | 2.0 | 3.0 | 0.00 | 0.00 | 0.00 | 70 | 1018.8 |
| 20260903153040 | 74 | 177 | 2.0 | 4.0 | 0.00 | 0.00 | 0.00 | 70 | 1018.6 |
| 20260903152536 | 73 | 145 | 1.0 | 2.0 | 0.00 | 0.00 | 0.00 | 68 | 1018.9 |
| 20260903152033 | 73 | 166 | 2.0 | 4.0 | 0.00 | 0.00 | 0.00 | 73 | 1018.8 |
| 20260903151531 | 72 | 165 | 2.0 | 3.0 | 0.00 | 0.00 | 0.00 | 72 | 1018.9 |
| 20260903151027 | 72 | 196 | 5.0 | 6.0 | 0.00 | 0.00 | 0.00 | 72 | 1018.7 |
| 20260903150521 | 72 | 169 | 0.0 | 2.0 | 0.00 | 0.00 | 0.00 | 73 | 1018.9 |
| 20260903150016 | 71 | 189 | 1.0 | 3.0 | 0.00 | 0.00 | 0.00 | 74 | 1018.9 |
| 20260903145516 | 69 | 176 | 1.0 | 6.0 | 0.00 | 0.00 | 0.00 | 78 | 1019.0 |
| 20260903145011 | 69 | 166 | 3.0 | 3.0 | 0.00 | 0.00 | 0.00 | 78 | 1018.7 |
| 20260903144510 | 70 | 95 | 2.0 | 4.0 | 0.00 | 0.00 | 0.00 | 77 | 1018.8 |
| 20260903144006 | 70 | 156 | 2.0 | 6.0 | 0.00 | 0.00 | 0.00 | 77 | 1018.9 |
| 20260903143502 | 70 | 102 | 2.0 | 4.0 | 0.00 | 0.00 | 0.00 | 78 | 1019.0 |
| 20260903142958 | 69 | 81 | 2.0 | 6.0 | 0.00 | 0.00 | 0.00 | 78 | 1018.9 |
| 20260903142453 | 69 | 128 | 2.0 | 4.0 | 0.00 | 0.00 | 0.00 | 77 | 1019.1 |
| 20260903141949 | 70 | 175 | 2.0 | 4.0 | 0.00 | 0.00 | 0.00 | 76 | 1019.1 |
| 20260903141444 | 69 | 180 | 2.0 | 3.0 | 0.00 | 0.00 | 0.00 | 77 | 1018.9 |
| 20260903140940 | 69 | 174 | 2.0 | 3.0 | 0.00 | 0.00 | 0.00 | 78 | 1018.9 |
| 20260903140436 | 70 | 126 | 1.0 | 4.0 | 0.00 | 0.00 | 0.00 | 77 | 1018.9 |
| 20260903135931 | 71 | 135 | 1.0 | 2.0 | 0.00 | 0.00 | 0.00 | 75 | 1018.8 |
| 20260903135427 | 70 | 193 | 1.0 | 1.0 | 0.00 | 0.00 | 0.00 | 76 | 1018.9 |
| 20260903134926 | 69 | 213 | 0.0 | 0.0 | 0.00 | 0.00 | 0.00 | 78 | 1018.6 |
| 20260903134420 | 68 | 183 | 0.0 | 0.0 | 0.00 | 0.00 | 0.00 | 78 | 1018.7 |
| 20260903133918 | 69 | 149 | 2.0 | 3.0 | 0.00 | 0.00 | 0.00 | 76 | 1018.6 |
| 20260903133414 | 69 | 200 | 2.0 | 3.0 | 0.00 | 0.00 | 0.00 | 74 | 1018.5 |
| 20260903132915 | 69 | 188 | 0.0 | 1.0 | 0.00 | 0.00 | 0.00 | 76 | 1018.8 |
| 20260903132410 | 69 | 158 | 0.0 | 1.0 | 0.00 | 0.00 | 0.00 | 78 | 1018.7 |
| 20260903131904 | 68 | 175 | 1.0 | 2.0 | 0.00 | 0.00 | 0.00 | 77 | 1018.8 |
| 20260903131358 | 68 | 172 | 0.0 | 1.0 | 0.00 | 0.00 | 0.00 | 80 | 1018.6 |
| 20260903130857 | 66 | 185 | 0.0 | 0.0 | 0.00 | 0.00 | 0.00 | 80 | 1018.8 |
| 20260903130352 | 65 | 191 | 0.0 | 0.0 | 0.00 | 0.00 | 0.00 | 85 | 1018.8 |
| 20260903125851 | 64 | 148 | 0.0 | 1.0 | 0.00 | 0.00 | 0.00 | 85 | 1018.8 |
| 20260903125347 | 62 | 210 | 0.0 | 1.0 | 0.00 | 0.00 | 0.00 | 87 | 1018.6 |
| 20260903124845 | 63 | 219 | 0.0 | 1.0 | 0.00 | 0.00 | 0.00 | 85 | 1018.6 |
| 20260903124342 | 64 | 219 | 0.0 | 1.0 | 0.00 | 0.00 | 0.00 | 86 | 1018.4 |
| 20260903123840 | 63 | 206 | 0.0 | 0.0 | 0.00 | 0.00 | 0.00 | 87 | 1018.4 |
| 20260903123329 | 60 | 120 | 0.0 | 0.0 | 0.00 | 0.00 | 0.00 | 92 | 1018.1 |
| 20260903122828 | 59 | 121 | 0.0 | 0.0 | 0.00 | 0.00 | 0.00 | 94 | 1018.3 |
| 20260903122322 | 59 | 121 | 0.0 | 0.0 | 0.00 | 0.00 | 0.00 | 95 | 1018.5 |
| 20260903121821 | 59 | 120 | 0.0 | 0.0 | 0.00 | 0.00 | 0.00 | 95 | 1018.4 |
| 20260903121316 | 59 | 120 | 0.0 | 0.0 | 0.00 | 0.00 | 0.00 | 95 | 1018.4 |
| 20260903120813 | 59 | 120 | 0.0 | 0.0 | 0.00 | 0.00 | 0.00 | 95 | 1018.4 |
| 20260903120312 | 58 | 120 | 0.0 | 0.0 | 0.00 | 0.00 | 0.00 | 95 | 1018.4 |
| 20260903115810 | 58 | 120 | 0.0 | 0.0 | 0.00 | 0.00 | 0.00 | 95 | 1018.1 |
| 20260903115306 | 58 | 120 | 0.0 | 0.0 | 0.00 | 0.00 | 0.00 | 94 | 1018.0 |
| 20260903114805 | 58 | 120 | 0.0 | 0.0 | 0.00 | 0.00 | 0.00 | 94 | 1018.1 |
| 20260903114301 | 58 | 120 | 0.0 | 0.0 | 0.00 | 0.00 | 0.00 | 94 | 1018.0 |
| 20260903113756 | 58 | 120 | 0.0 | 0.0 | 0.00 | 0.00 | 0.00 | 94 | 1018.1 |
| 20260903113252 | 58 | 120 | 0.0 | 0.0 | 0.00 | 0.00 | 0.00 | 93 | 1017.9 |
| 20260903112747 | 58 | 119 | 0.0 | 0.0 | 0.00 | 0.00 | 0.00 | 93 | 1017.9 |
| 20260903112243 | 58 | 120 | 0.0 | 0.0 | 0.00 | 0.00 | 0.00 | 93 | 1017.9 |
| 20260903111741 | 58 | 119 | 0.0 | 0.0 | 0.00 | 0.00 | 0.00 | 92 | 1017.8 |
| 20260903111237 | 58 | 119 | 0.0 | 0.0 | 0.00 | 0.00 | 0.00 | 93 | 1018.0 |
| 20260903110733 | 58 | 119 | 0.0 | 0.0 | 0.00 | 0.00 | 0.00 | 93 | 1017.9 |
| 20260903110229 | 58 | 119 | 0.0 | 0.0 | 0.00 | 0.00 | 0.00 | 93 | 1017.7 |
| 20260903105728 | 58 | 119 | 0.0 | 0.0 | 0.00 | 0.00 | 0.00 | 93 | 1017.8 |
| 20260903105223 | 58 | 119 | 0.0 | 0.0 | 0.00 | 0.00 | 0.00 | 92 | 1017.9 |
| 20260903104723 | 58 | 119 | 0.0 | 0.0 | 0.00 | 0.00 | 0.00 | 92 | 1017.8 |
| 20260903104218 | 58 | 119 | 0.0 | 0.0 | 0.00 | 0.00 | 0.00 | 92 | 1017.8 |
| 20260903103714 | 58 | 119 | 0.0 | 0.0 | 0.00 | 0.00 | 0.00 | 93 | 1017.7 |
| 20260903103210 | 59 | 119 | 0.0 | 0.0 | 0.00 | 0.00 | 0.00 | 92 | 1017.7 |
| 20260903102705 | 59 | 118 | 0.0 | 0.0 | 0.00 | 0.00 | 0.00 | 92 | 1017.8 |
| 20260903102159 | 59 | 118 | 0.0 | 0.0 | 0.00 | 0.00 | 0.00 | 92 | 1017.8 |
| 20260903101658 | 59 | 119 | 0.0 | 0.0 | 0.00 | 0.00 | 0.00 | 91 | 1017.9 |
| 20260903101154 | 59 | 119 | 0.0 | 0.0 | 0.00 | 0.00 | 0.00 | 92 | 1017.8 |
| 20260903100654 | 59 | 119 | 0.0 | 0.0 | 0.00 | 0.00 | 0.00 | 92 | 1017.7 |
| 20260903100154 | 59 | 119 | 0.0 | 0.0 | 0.00 | 0.00 | 0.00 | 92 | 1017.8 |
| 20260903095651 | 59 | 133 | 0.0 | 0.0 | 0.00 | 0.00 | 0.00 | 92 | 1017.7 |
| 20260903095146 | 59 | 143 | 0.0 | 0.0 | 0.00 | 0.00 | 0.00 | 92 | 1017.8 |
| 20260903094641 | 59 | 142 | 0.0 | 0.0 | 0.00 | 0.00 | 0.00 | 92 | 1017.6 |
| 20260903094137 | 59 | 133 | 0.0 | 1.0 | 0.00 | 0.00 | 0.00 | 92 | 1017.5 |
| 20260903093632 | 59 | 129 | 0.0 | 1.0 | 0.00 | 0.00 | 0.00 | 93 | 1017.6 |
| 20260903093127 | 59 | 140 | 0.0 | 0.0 | 0.00 | 0.00 | 0.00 | 94 | 1017.9 |
| 20260903092627 | 59 | 142 | 0.0 | 0.0 | 0.00 | 0.00 | 0.00 | 94 | 1017.7 |
| 20260903092121 | 59 | 195 | 0.0 | 0.0 | 0.00 | 0.00 | 0.00 | 94 | 1017.8 |
| 20260903091620 | 59 | 174 | 0.0 | 0.0 | 0.00 | 0.00 | 0.00 | 94 | 1017.7 |
| 20260903091114 | 59 | 193 | 0.0 | 0.0 | 0.00 | 0.00 | 0.00 | 94 | 1017.6 |
| 20260903090610 | 59 | 193 | 0.0 | 0.0 | 0.00 | 0.00 | 0.00 | 94 | 1017.8 |
| 20260903090109 | 59 | 173 | 0.0 | 0.0 | 0.00 | 0.00 | 0.00 | 94 | 1017.8 |
| 20260903085608 | 59 | 167 | 0.0 | 0.0 | 0.00 | 0.00 | 0.00 | 94 | 1017.8 |
| 20260903085103 | 59 | 191 | 0.0 | 0.0 | 0.00 | 0.00 | 0.00 | 94 | 1017.8 |
| 20260903084601 | 59 | 198 | 0.0 | 0.0 | 0.00 | 0.00 | 0.00 | 94 | 1017.6 |
| 20260903084056 | 59 | 133 | 0.0 | 0.0 | 0.00 | 0.00 | 0.00 | 94 | 1017.9 |
| 20260903083552 | 59 | 136 | 0.0 | 0.0 | 0.00 | 0.00 | 0.00 | 94 | 1017.8 |
| 20260903083051 | 59 | 184 | 0.0 | 0.0 | 0.00 | 0.00 | 0.00 | 94 | 1017.8 |
| 20260903082546 | 60 | 184 | 0.0 | 0.0 | 0.00 | 0.00 | 0.00 | 93 | 1018.0 |
| 20260903082041 | 60 | 172 | 0.0 | 0.0 | 0.00 | 0.00 | 0.00 | 94 | 1017.8 |
| 20260903081537 | 60 | 190 | 0.0 | 0.0 | 0.00 | 0.00 | 0.00 | 94 | 1017.8 |